sensor_id;sensor_type;location;lat;lon;timestamp;P1;durP1;ratioP1;P2;durP2;ratioP2
24277;SDS011;12394;42.692;23.314;2023-05-21T00:02:13;17.23;;;13.40;;
24277;SDS011;12394;42.692;23.314;2023-05-21T00:04:41;18.57;;;14.50;;
24277;SDS011;12394;42.692;23.314;2023-05-21T00:07:10;21.20;;;14.43;;
24277;SDS011;12394;42.692;23.314;2023-05-21T00:09:36;23.70;;;14.50;;
24277;SDS011;12394;42.692;23.314;2023-05-21T00:12:05;22.57;;;14.00;;
24277;SDS011;12394;42.692;23.314;2023-05-21T00:14:32;20.80;;;13.67;;
24277;SDS011;12394;42.692;23.314;2023-05-21T00:16:58;16.60;;;12.07;;
24277;SDS011;12394;42.692;23.314;2023-05-21T00:19:23;20.83;;;12.33;;
24277;SDS011;12394;42.692;23.314;2023-05-21T00:21:49;16.50;;;12.73;;
24277;SDS011;12394;42.692;23.314;2023-05-21T00:24:14;18.93;;;13.20;;
24277;SDS011;12394;42.692;23.314;2023-05-21T00:26:40;18.87;;;12.43;;
24277;SDS011;12394;42.692;23.314;2023-05-21T00:29:06;18.37;;;13.10;;
24277;SDS011;12394;42.692;23.314;2023-05-21T00:31:31;18.50;;;12.80;;
24277;SDS011;12394;42.692;23.314;2023-05-21T00:33:57;16.83;;;13.13;;
24277;SDS011;12394;42.692;23.314;2023-05-21T00:36:23;20.67;;;13.10;;
24277;SDS011;12394;42.692;23.314;2023-05-21T00:38:49;22.07;;;13.80;;
24277;SDS011;12394;42.692;23.314;2023-05-21T00:41:15;18.27;;;13.73;;
24277;SDS011;12394;42.692;23.314;2023-05-21T00:43:41;23.13;;;14.43;;
24277;SDS011;12394;42.692;23.314;2023-05-21T00:46:10;21.30;;;14.60;;
24277;SDS011;12394;42.692;23.314;2023-05-21T00:48:40;21.80;;;14.37;;
24277;SDS011;12394;42.692;23.314;2023-05-21T00:51:06;17.33;;;14.37;;
24277;SDS011;12394;42.692;23.314;2023-05-21T00:53:32;16.80;;;13.83;;
24277;SDS011;12394;42.692;23.314;2023-05-21T00:56:01;18.00;;;14.57;;
24277;SDS011;12394;42.692;23.314;2023-05-21T00:58:27;19.90;;;14.70;;
24277;SDS011;12394;42.692;23.314;2023-05-21T01:00:53;18.57;;;13.63;;
24277;SDS011;12394;42.692;23.314;2023-05-21T01:03:22;17.47;;;15.20;;
24277;SDS011;12394;42.692;23.314;2023-05-21T01:05:51;18.33;;;14.53;;
24277;SDS011;12394;42.692;23.314;2023-05-21T01:08:23;25.17;;;14.27;;
24277;SDS011;12394;42.692;23.314;2023-05-21T01:10:51;20.87;;;14.43;;
24277;SDS011;12394;42.692;23.314;2023-05-21T01:13:18;21.83;;;14.37;;
24277;SDS011;12394;42.692;23.314;2023-05-21T01:15:46;22.80;;;14.10;;
24277;SDS011;12394;42.692;23.314;2023-05-21T01:18:13;17.73;;;13.67;;
24277;SDS011;12394;42.692;23.314;2023-05-21T01:20:40;16.33;;;13.57;;
24277;SDS011;12394;42.692;23.314;2023-05-21T01:23:12;16.50;;;12.30;;
24277;SDS011;12394;42.692;23.314;2023-05-21T01:25:40;17.93;;;13.17;;
24277;SDS011;12394;42.692;23.314;2023-05-21T01:28:06;16.30;;;12.50;;
24277;SDS011;12394;42.692;23.314;2023-05-21T01:30:31;14.90;;;11.87;;
24277;SDS011;12394;42.692;23.314;2023-05-21T01:37:56;20.17;;;12.23;;
24277;SDS011;12394;42.692;23.314;2023-05-21T01:40:30;16.43;;;11.93;;
24277;SDS011;12394;42.692;23.314;2023-05-21T01:43:04;17.57;;;11.87;;
24277;SDS011;12394;42.692;23.314;2023-05-21T01:45:31;14.90;;;12.17;;
24277;SDS011;12394;42.692;23.314;2023-05-21T01:47:58;17.67;;;12.37;;
24277;SDS011;12394;42.692;23.314;2023-05-21T01:50:24;18.47;;;13.17;;
24277;SDS011;12394;42.692;23.314;2023-05-21T01:52:51;18.63;;;12.60;;
24277;SDS011;12394;42.692;23.314;2023-05-21T01:55:17;17.83;;;12.10;;
24277;SDS011;12394;42.692;23.314;2023-05-21T01:57:48;17.83;;;11.23;;
24277;SDS011;12394;42.692;23.314;2023-05-21T02:00:17;16.63;;;11.40;;
24277;SDS011;12394;42.692;23.314;2023-05-21T02:02:44;14.70;;;11.57;;
24277;SDS011;12394;42.692;23.314;2023-05-21T02:05:09;15.87;;;11.33;;
24277;SDS011;12394;42.692;23.314;2023-05-21T02:07:35;15.80;;;10.73;;
24277;SDS011;12394;42.692;23.314;2023-05-21T02:10:01;14.40;;;10.87;;
24277;SDS011;12394;42.692;23.314;2023-05-21T02:12:27;14.97;;;11.40;;
24277;SDS011;12394;42.692;23.314;2023-05-21T02:14:53;15.23;;;10.60;;
24277;SDS011;12394;42.692;23.314;2023-05-21T02:17:20;12.63;;;10.53;;
24277;SDS011;12394;42.692;23.314;2023-05-21T02:19:46;18.70;;;11.17;;
24277;SDS011;12394;42.692;23.314;2023-05-21T02:22:12;14.03;;;10.23;;
24277;SDS011;12394;42.692;23.314;2023-05-21T02:24:37;15.73;;;10.30;;
24277;SDS011;12394;42.692;23.314;2023-05-21T02:27:03;13.43;;;10.30;;
24277;SDS011;12394;42.692;23.314;2023-05-21T02:29:30;16.00;;;10.97;;
24277;SDS011;12394;42.692;23.314;2023-05-21T02:31:56;18.73;;;11.53;;
24277;SDS011;12394;42.692;23.314;2023-05-21T02:34:21;17.00;;;11.00;;
24277;SDS011;12394;42.692;23.314;2023-05-21T02:36:48;18.30;;;12.20;;
24277;SDS011;12394;42.692;23.314;2023-05-21T02:39:16;18.80;;;12.10;;
24277;SDS011;12394;42.692;23.314;2023-05-21T02:41:43;15.73;;;11.63;;
24277;SDS011;12394;42.692;23.314;2023-05-21T02:44:09;16.37;;;12.47;;
24277;SDS011;12394;42.692;23.314;2023-05-21T02:46:35;15.50;;;11.93;;
24277;SDS011;12394;42.692;23.314;2023-05-21T02:49:00;18.33;;;11.73;;
24277;SDS011;12394;42.692;23.314;2023-05-21T02:51:26;21.27;;;12.23;;
24277;SDS011;12394;42.692;23.314;2023-05-21T02:53:51;21.60;;;12.33;;
24277;SDS011;12394;42.692;23.314;2023-05-21T02:56:17;17.80;;;13.07;;
24277;SDS011;12394;42.692;23.314;2023-05-21T02:58:42;20.23;;;11.77;;
24277;SDS011;12394;42.692;23.314;2023-05-21T03:01:08;19.90;;;12.30;;
24277;SDS011;12394;42.692;23.314;2023-05-21T03:03:33;18.00;;;12.37;;
24277;SDS011;12394;42.692;23.314;2023-05-21T03:06:17;13.90;;;11.53;;
24277;SDS011;12394;42.692;23.314;2023-05-21T03:08:43;17.23;;;11.53;;
24277;SDS011;12394;42.692;23.314;2023-05-21T03:11:08;17.20;;;13.07;;
24277;SDS011;12394;42.692;23.314;2023-05-21T03:13:34;16.43;;;12.67;;
24277;SDS011;12394;42.692;23.314;2023-05-21T03:15:59;20.63;;;12.73;;
24277;SDS011;12394;42.692;23.314;2023-05-21T03:18:24;16.90;;;12.00;;
24277;SDS011;12394;42.692;23.314;2023-05-21T03:20:50;19.00;;;12.07;;
24277;SDS011;12394;42.692;23.314;2023-05-21T03:23:15;17.53;;;11.87;;
24277;SDS011;12394;42.692;23.314;2023-05-21T03:25:40;15.77;;;11.23;;
24277;SDS011;12394;42.692;23.314;2023-05-21T03:28:06;18.67;;;11.10;;
24277;SDS011;12394;42.692;23.314;2023-05-21T03:30:34;15.73;;;11.27;;
24277;SDS011;12394;42.692;23.314;2023-05-21T03:33:00;13.73;;;11.50;;
24277;SDS011;12394;42.692;23.314;2023-05-21T03:35:27;19.77;;;10.83;;
24277;SDS011;12394;42.692;23.314;2023-05-21T03:37:52;12.17;;;9.47;;
24277;SDS011;12394;42.692;23.314;2023-05-21T03:40:18;12.83;;;10.23;;
24277;SDS011;12394;42.692;23.314;2023-05-21T03:42:43;12.60;;;10.00;;
24277;SDS011;12394;42.692;23.314;2023-05-21T03:45:09;14.70;;;11.57;;
24277;SDS011;12394;42.692;23.314;2023-05-21T03:47:35;16.27;;;10.13;;
24277;SDS011;12394;42.692;23.314;2023-05-21T03:50:01;14.20;;;10.33;;
24277;SDS011;12394;42.692;23.314;2023-05-21T03:52:27;21.43;;;11.87;;
24277;SDS011;12394;42.692;23.314;2023-05-21T03:54:52;17.30;;;10.87;;
24277;SDS011;12394;42.692;23.314;2023-05-21T03:57:17;18.80;;;11.20;;
24277;SDS011;12394;42.692;23.314;2023-05-21T03:59:43;19.07;;;10.60;;
24277;SDS011;12394;42.692;23.314;2023-05-21T04:02:09;19.27;;;11.43;;
24277;SDS011;12394;42.692;23.314;2023-05-21T04:04:34;13.70;;;11.00;;
24277;SDS011;12394;42.692;23.314;2023-05-21T04:07:01;16.43;;;10.67;;
24277;SDS011;12394;42.692;23.314;2023-05-21T04:09:28;14.97;;;10.63;;
24277;SDS011;12394;42.692;23.314;2023-05-21T04:11:54;17.00;;;10.93;;
24277;SDS011;12394;42.692;23.314;2023-05-21T04:14:19;22.57;;;11.00;;
24277;SDS011;12394;42.692;23.314;2023-05-21T04:16:45;15.80;;;11.00;;
24277;SDS011;12394;42.692;23.314;2023-05-21T04:19:13;17.37;;;11.10;;
24277;SDS011;12394;42.692;23.314;2023-05-21T04:21:38;21.70;;;11.70;;
24277;SDS011;12394;42.692;23.314;2023-05-21T04:24:04;14.63;;;11.03;;
24277;SDS011;12394;42.692;23.314;2023-05-21T04:26:29;19.47;;;11.30;;
24277;SDS011;12394;42.692;23.314;2023-05-21T04:28:57;23.23;;;11.40;;
24277;SDS011;12394;42.692;23.314;2023-05-21T04:31:23;20.70;;;12.30;;
24277;SDS011;12394;42.692;23.314;2023-05-21T04:33:48;18.07;;;11.83;;
24277;SDS011;12394;42.692;23.314;2023-05-21T04:36:14;18.50;;;11.73;;
24277;SDS011;12394;42.692;23.314;2023-05-21T04:38:41;18.03;;;12.07;;
24277;SDS011;12394;42.692;23.314;2023-05-21T04:41:06;19.27;;;12.40;;
24277;SDS011;12394;42.692;23.314;2023-05-21T04:43:34;20.37;;;11.43;;
24277;SDS011;12394;42.692;23.314;2023-05-21T04:46:00;19.07;;;12.30;;
24277;SDS011;12394;42.692;23.314;2023-05-21T04:48:26;21.87;;;12.40;;
24277;SDS011;12394;42.692;23.314;2023-05-21T04:50:52;22.73;;;12.27;;
24277;SDS011;12394;42.692;23.314;2023-05-21T04:53:19;18.17;;;10.83;;
24277;SDS011;12394;42.692;23.314;2023-05-21T04:55:45;23.60;;;12.43;;
24277;SDS011;12394;42.692;23.314;2023-05-21T04:58:11;17.40;;;10.23;;
24277;SDS011;12394;42.692;23.314;2023-05-21T05:00:37;21.87;;;12.20;;
24277;SDS011;12394;42.692;23.314;2023-05-21T05:03:02;14.50;;;10.03;;
24277;SDS011;12394;42.692;23.314;2023-05-21T05:05:28;27.63;;;11.80;;
24277;SDS011;12394;42.692;23.314;2023-05-21T05:07:53;16.90;;;10.20;;
24277;SDS011;12394;42.692;23.314;2023-05-21T05:10:19;16.17;;;11.10;;
24277;SDS011;12394;42.692;23.314;2023-05-21T05:12:44;18.23;;;11.03;;
24277;SDS011;12394;42.692;23.314;2023-05-21T05:15:10;18.33;;;10.10;;
24277;SDS011;12394;42.692;23.314;2023-05-21T05:17:35;15.23;;;10.17;;
24277;SDS011;12394;42.692;23.314;2023-05-21T05:20:00;18.13;;;9.83;;
24277;SDS011;12394;42.692;23.314;2023-05-21T05:22:26;17.80;;;9.90;;
24277;SDS011;12394;42.692;23.314;2023-05-21T05:24:51;13.13;;;8.90;;
24277;SDS011;12394;42.692;23.314;2023-05-21T05:27:17;16.50;;;8.70;;
24277;SDS011;12394;42.692;23.314;2023-05-21T05:29:45;21.33;;;10.43;;
24277;SDS011;12394;42.692;23.314;2023-05-21T05:32:11;13.90;;;9.67;;
24277;SDS011;12394;42.692;23.314;2023-05-21T05:34:37;13.77;;;9.83;;
24277;SDS011;12394;42.692;23.314;2023-05-21T05:37:02;24.10;;;11.20;;
24277;SDS011;12394;42.692;23.314;2023-05-21T05:39:28;21.63;;;9.40;;
24277;SDS011;12394;42.692;23.314;2023-05-21T05:41:54;14.07;;;9.03;;
24277;SDS011;12394;42.692;23.314;2023-05-21T05:44:21;17.27;;;9.50;;
24277;SDS011;12394;42.692;23.314;2023-05-21T05:46:46;13.93;;;8.47;;
24277;SDS011;12394;42.692;23.314;2023-05-21T05:49:12;12.93;;;8.80;;
24277;SDS011;12394;42.692;23.314;2023-05-21T05:51:40;13.63;;;7.87;;
24277;SDS011;12394;42.692;23.314;2023-05-21T05:54:05;13.73;;;8.67;;
24277;SDS011;12394;42.692;23.314;2023-05-21T05:56:30;11.13;;;8.43;;
24277;SDS011;12394;42.692;23.314;2023-05-21T05:58:57;16.53;;;8.07;;
24277;SDS011;12394;42.692;23.314;2023-05-21T06:01:23;11.20;;;7.97;;
24277;SDS011;12394;42.692;23.314;2023-05-21T06:03:48;16.97;;;8.20;;
24277;SDS011;12394;42.692;23.314;2023-05-21T06:06:14;13.93;;;7.90;;
24277;SDS011;12394;42.692;23.314;2023-05-21T06:08:42;10.63;;;8.57;;
24277;SDS011;12394;42.692;23.314;2023-05-21T06:11:08;12.80;;;7.80;;
24277;SDS011;12394;42.692;23.314;2023-05-21T06:13:33;12.83;;;7.93;;
24277;SDS011;12394;42.692;23.314;2023-05-21T06:15:59;10.30;;;6.97;;
24277;SDS011;12394;42.692;23.314;2023-05-21T06:18:25;13.87;;;7.53;;
24277;SDS011;12394;42.692;23.314;2023-05-21T06:20:51;9.80;;;6.37;;
24277;SDS011;12394;42.692;23.314;2023-05-21T06:23:17;17.20;;;7.33;;
24277;SDS011;12394;42.692;23.314;2023-05-21T06:25:42;13.60;;;6.23;;
24277;SDS011;12394;42.692;23.314;2023-05-21T06:28:08;8.53;;;5.77;;
24277;SDS011;12394;42.692;23.314;2023-05-21T06:30:33;9.67;;;6.50;;
24277;SDS011;12394;42.692;23.314;2023-05-21T06:32:58;9.83;;;6.17;;
24277;SDS011;12394;42.692;23.314;2023-05-21T06:35:24;9.13;;;5.70;;
24277;SDS011;12394;42.692;23.314;2023-05-21T06:37:49;7.80;;;5.77;;
24277;SDS011;12394;42.692;23.314;2023-05-21T06:40:15;8.83;;;5.80;;
24277;SDS011;12394;42.692;23.314;2023-05-21T06:42:40;8.33;;;5.60;;
24277;SDS011;12394;42.692;23.314;2023-05-21T06:45:06;10.83;;;6.43;;
24277;SDS011;12394;42.692;23.314;2023-05-21T06:47:31;11.77;;;6.23;;
24277;SDS011;12394;42.692;23.314;2023-05-21T06:49:57;13.93;;;6.40;;
24277;SDS011;12394;42.692;23.314;2023-05-21T06:52:23;11.03;;;6.40;;
24277;SDS011;12394;42.692;23.314;2023-05-21T06:54:50;11.23;;;5.93;;
24277;SDS011;12394;42.692;23.314;2023-05-21T06:57:16;9.33;;;5.63;;
24277;SDS011;12394;42.692;23.314;2023-05-21T06:59:41;8.37;;;6.93;;
24277;SDS011;12394;42.692;23.314;2023-05-21T07:02:06;9.80;;;5.93;;
24277;SDS011;12394;42.692;23.314;2023-05-21T07:04:32;8.67;;;6.10;;
24277;SDS011;12394;42.692;23.314;2023-05-21T07:06:59;14.10;;;6.13;;
24277;SDS011;12394;42.692;23.314;2023-05-21T07:09:24;10.40;;;5.60;;
24277;SDS011;12394;42.692;23.314;2023-05-21T07:11:50;7.60;;;5.80;;
24277;SDS011;12394;42.692;23.314;2023-05-21T07:14:16;13.93;;;6.60;;
24277;SDS011;12394;42.692;23.314;2023-05-21T07:16:42;8.53;;;5.60;;
24277;SDS011;12394;42.692;23.314;2023-05-21T07:19:07;9.60;;;6.13;;
24277;SDS011;12394;42.692;23.314;2023-05-21T07:21:33;9.43;;;6.30;;
24277;SDS011;12394;42.692;23.314;2023-05-21T07:23:58;7.30;;;6.00;;
24277;SDS011;12394;42.692;23.314;2023-05-21T07:26:23;12.40;;;6.30;;
24277;SDS011;12394;42.692;23.314;2023-05-21T07:28:50;9.33;;;6.03;;
24277;SDS011;12394;42.692;23.314;2023-05-21T07:31:15;10.30;;;6.43;;
24277;SDS011;12394;42.692;23.314;2023-05-21T07:33:41;10.70;;;6.33;;
24277;SDS011;12394;42.692;23.314;2023-05-21T07:36:06;12.53;;;6.80;;
24277;SDS011;12394;42.692;23.314;2023-05-21T07:38:31;12.70;;;5.90;;
24277;SDS011;12394;42.692;23.314;2023-05-21T07:40:57;8.97;;;5.67;;
24277;SDS011;12394;42.692;23.314;2023-05-21T07:43:22;10.90;;;5.73;;
24277;SDS011;12394;42.692;23.314;2023-05-21T07:45:48;9.50;;;6.40;;
24277;SDS011;12394;42.692;23.314;2023-05-21T07:48:13;10.53;;;5.93;;
24277;SDS011;12394;42.692;23.314;2023-05-21T07:50:39;15.10;;;7.33;;
24277;SDS011;12394;42.692;23.314;2023-05-21T07:53:04;8.63;;;6.40;;
24277;SDS011;12394;42.692;23.314;2023-05-21T07:55:30;9.67;;;6.83;;
24277;SDS011;12394;42.692;23.314;2023-05-21T07:57:55;12.30;;;6.30;;
24277;SDS011;12394;42.692;23.314;2023-05-21T08:00:21;10.37;;;5.17;;
24277;SDS011;12394;42.692;23.314;2023-05-21T08:02:48;10.50;;;5.07;;
24277;SDS011;12394;42.692;23.314;2023-05-21T08:05:13;10.30;;;4.60;;
24277;SDS011;12394;42.692;23.314;2023-05-21T08:07:40;9.63;;;4.83;;
24277;SDS011;12394;42.692;23.314;2023-05-21T08:10:05;10.60;;;4.77;;
24277;SDS011;12394;42.692;23.314;2023-05-21T08:12:32;7.23;;;4.80;;
24277;SDS011;12394;42.692;23.314;2023-05-21T08:14:58;7.00;;;4.43;;
24277;SDS011;12394;42.692;23.314;2023-05-21T08:17:23;7.87;;;4.37;;
24277;SDS011;12394;42.692;23.314;2023-05-21T08:19:49;10.10;;;4.07;;
24277;SDS011;12394;42.692;23.314;2023-05-21T08:22:14;6.73;;;4.37;;
24277;SDS011;12394;42.692;23.314;2023-05-21T08:24:39;11.30;;;4.90;;
24277;SDS011;12394;42.692;23.314;2023-05-21T08:27:05;5.10;;;4.30;;
24277;SDS011;12394;42.692;23.314;2023-05-21T08:29:31;11.73;;;3.73;;
24277;SDS011;12394;42.692;23.314;2023-05-21T08:31:57;9.27;;;4.37;;
24277;SDS011;12394;42.692;23.314;2023-05-21T08:34:22;10.17;;;4.37;;
24277;SDS011;12394;42.692;23.314;2023-05-21T08:36:48;8.10;;;4.80;;
24277;SDS011;12394;42.692;23.314;2023-05-21T08:39:14;10.33;;;4.57;;
24277;SDS011;12394;42.692;23.314;2023-05-21T08:41:39;8.33;;;4.67;;
24277;SDS011;12394;42.692;23.314;2023-05-21T08:44:10;8.47;;;3.93;;
24277;SDS011;12394;42.692;23.314;2023-05-21T08:46:37;7.73;;;4.00;;
24277;SDS011;12394;42.692;23.314;2023-05-21T08:49:04;5.90;;;4.30;;
24277;SDS011;12394;42.692;23.314;2023-05-21T08:51:34;7.03;;;3.60;;
24277;SDS011;12394;42.692;23.314;2023-05-21T08:54:00;5.23;;;4.23;;
24277;SDS011;12394;42.692;23.314;2023-05-21T08:56:26;6.70;;;4.20;;
24277;SDS011;12394;42.692;23.314;2023-05-21T08:58:55;8.03;;;4.40;;
24277;SDS011;12394;42.692;23.314;2023-05-21T09:01:20;10.63;;;4.67;;
24277;SDS011;12394;42.692;23.314;2023-05-21T09:03:46;8.57;;;4.67;;
24277;SDS011;12394;42.692;23.314;2023-05-21T09:06:14;6.67;;;4.07;;
24277;SDS011;12394;42.692;23.314;2023-05-21T09:08:43;6.33;;;4.33;;
24277;SDS011;12394;42.692;23.314;2023-05-21T09:11:12;11.50;;;4.47;;
24277;SDS011;12394;42.692;23.314;2023-05-21T09:13:38;6.13;;;4.17;;
24277;SDS011;12394;42.692;23.314;2023-05-21T09:16:05;9.10;;;4.33;;
24277;SDS011;12394;42.692;23.314;2023-05-21T09:18:32;6.20;;;4.60;;
24277;SDS011;12394;42.692;23.314;2023-05-21T09:20:57;6.90;;;4.10;;
24277;SDS011;12394;42.692;23.314;2023-05-21T09:23:43;7.73;;;4.00;;
24277;SDS011;12394;42.692;23.314;2023-05-21T09:26:09;9.43;;;4.30;;
24277;SDS011;12394;42.692;23.314;2023-05-21T09:28:36;6.50;;;4.00;;
24277;SDS011;12394;42.692;23.314;2023-05-21T09:31:02;8.87;;;4.10;;
24277;SDS011;12394;42.692;23.314;2023-05-21T09:33:27;10.03;;;4.00;;
24277;SDS011;12394;42.692;23.314;2023-05-21T09:35:56;10.83;;;4.47;;
24277;SDS011;12394;42.692;23.314;2023-05-21T09:38:22;5.33;;;3.60;;
24277;SDS011;12394;42.692;23.314;2023-05-21T09:40:49;14.23;;;4.73;;
24277;SDS011;12394;42.692;23.314;2023-05-21T09:43:15;10.67;;;4.57;;
24277;SDS011;12394;42.692;23.314;2023-05-21T09:45:50;8.60;;;4.10;;
24277;SDS011;12394;42.692;23.314;2023-05-21T09:48:31;5.83;;;4.50;;
24277;SDS011;12394;42.692;23.314;2023-05-21T09:51:10;9.43;;;3.80;;
24277;SDS011;12394;42.692;23.314;2023-05-21T09:56:08;10.13;;;4.40;;
24277;SDS011;12394;42.692;23.314;2023-05-21T09:58:34;7.27;;;3.60;;
24277;SDS011;12394;42.692;23.314;2023-05-21T10:00:59;7.13;;;4.07;;
24277;SDS011;12394;42.692;23.314;2023-05-21T10:03:25;4.77;;;3.90;;
24277;SDS011;12394;42.692;23.314;2023-05-21T10:05:52;5.97;;;4.10;;
24277;SDS011;12394;42.692;23.314;2023-05-21T10:08:19;6.17;;;3.50;;
24277;SDS011;12394;42.692;23.314;2023-05-21T10:10:49;9.40;;;4.40;;
24277;SDS011;12394;42.692;23.314;2023-05-21T10:13:16;15.20;;;4.45;;
24277;SDS011;12394;42.692;23.314;2023-05-21T10:15:57;8.35;;;5.28;;
24277;SDS011;12394;42.692;23.314;2023-05-21T10:18:27;9.57;;;4.10;;
24277;SDS011;12394;42.692;23.314;2023-05-21T10:20:54;6.15;;;4.05;;
24277;SDS011;12394;42.692;23.314;2023-05-21T10:23:21;5.60;;;4.27;;
24277;SDS011;12394;42.692;23.314;2023-05-21T10:25:48;8.53;;;4.07;;
24277;SDS011;12394;42.692;23.314;2023-05-21T10:28:14;5.27;;;3.70;;
24277;SDS011;12394;42.692;23.314;2023-05-21T10:30:41;10.77;;;4.10;;
24277;SDS011;12394;42.692;23.314;2023-05-21T10:33:08;7.80;;;4.33;;
24277;SDS011;12394;42.692;23.314;2023-05-21T10:35:36;8.00;;;4.13;;
24277;SDS011;12394;42.692;23.314;2023-05-21T10:38:04;9.27;;;4.23;;
24277;SDS011;12394;42.692;23.314;2023-05-21T10:40:32;7.33;;;4.50;;
24277;SDS011;12394;42.692;23.314;2023-05-21T10:43:16;6.73;;;4.13;;
24277;SDS011;12394;42.692;23.314;2023-05-21T10:51:21;10.93;;;4.33;;
24277;SDS011;12394;42.692;23.314;2023-05-21T10:54:14;9.23;;;4.43;;
24277;SDS011;12394;42.692;23.314;2023-05-21T10:56:57;6.87;;;4.50;;
24277;SDS011;12394;42.692;23.314;2023-05-21T11:02:10;17.53;;;5.90;;
24277;SDS011;12394;42.692;23.314;2023-05-21T11:04:37;5.80;;;4.37;;
24277;SDS011;12394;42.692;23.314;2023-05-21T11:07:06;11.13;;;4.47;;
24277;SDS011;12394;42.692;23.314;2023-05-21T11:09:32;4.83;;;3.83;;
24277;SDS011;12394;42.692;23.314;2023-05-21T11:11:58;11.53;;;4.27;;
24277;SDS011;12394;42.692;23.314;2023-05-21T11:19:39;11.53;;;4.07;;
24277;SDS011;12394;42.692;23.314;2023-05-21T11:22:23;6.70;;;4.73;;
24277;SDS011;12394;42.692;23.314;2023-05-21T11:24:50;8.47;;;4.67;;
24277;SDS011;12394;42.692;23.314;2023-05-21T11:27:35;7.70;;;4.50;;
24277;SDS011;12394;42.692;23.314;2023-05-21T11:30:03;7.87;;;4.30;;
24277;SDS011;12394;42.692;23.314;2023-05-21T11:32:38;9.90;;;4.70;;
24277;SDS011;12394;42.692;23.314;2023-05-21T11:35:26;8.60;;;4.43;;
24277;SDS011;12394;42.692;23.314;2023-05-21T11:37:52;10.13;;;5.40;;
24277;SDS011;12394;42.692;23.314;2023-05-21T11:40:18;8.97;;;4.33;;
24277;SDS011;12394;42.692;23.314;2023-05-21T11:42:52;9.80;;;4.60;;
24277;SDS011;12394;42.692;23.314;2023-05-21T11:45:20;8.43;;;4.87;;
24277;SDS011;12394;42.692;23.314;2023-05-21T11:47:49;9.87;;;4.27;;
24277;SDS011;12394;42.692;23.314;2023-05-21T11:50:16;9.97;;;5.47;;
24277;SDS011;12394;42.692;23.314;2023-05-21T11:52:42;9.27;;;5.40;;
24277;SDS011;12394;42.692;23.314;2023-05-21T11:55:09;9.33;;;5.50;;
24277;SDS011;12394;42.692;23.314;2023-05-21T11:57:35;8.43;;;4.83;;
24277;SDS011;12394;42.692;23.314;2023-05-21T12:00:01;11.17;;;5.03;;
24277;SDS011;12394;42.692;23.314;2023-05-21T12:02:37;8.33;;;5.13;;
24277;SDS011;12394;42.692;23.314;2023-05-21T12:05:03;9.13;;;4.57;;
24277;SDS011;12394;42.692;23.314;2023-05-21T12:07:29;12.40;;;4.90;;
24277;SDS011;12394;42.692;23.314;2023-05-21T12:09:55;9.90;;;4.63;;
24277;SDS011;12394;42.692;23.314;2023-05-21T12:12:21;16.93;;;5.23;;
24277;SDS011;12394;42.692;23.314;2023-05-21T12:14:51;29.20;;;6.20;;
24277;SDS011;12394;42.692;23.314;2023-05-21T12:17:18;18.00;;;6.20;;
24277;SDS011;12394;42.692;23.314;2023-05-21T12:19:49;10.10;;;5.43;;
24277;SDS011;12394;42.692;23.314;2023-05-21T12:22:16;10.53;;;5.87;;
24277;SDS011;12394;42.692;23.314;2023-05-21T12:24:43;12.97;;;5.40;;
24277;SDS011;12394;42.692;23.314;2023-05-21T12:27:11;16.37;;;6.17;;
24277;SDS011;12394;42.692;23.314;2023-05-21T12:29:40;17.47;;;5.43;;
24277;SDS011;12394;42.692;23.314;2023-05-21T12:32:14;14.87;;;6.20;;
24277;SDS011;12394;42.692;23.314;2023-05-21T12:34:52;17.13;;;6.80;;
24277;SDS011;12394;42.692;23.314;2023-05-21T12:37:22;18.40;;;5.73;;
24277;SDS011;12394;42.692;23.314;2023-05-21T12:39:51;7.80;;;4.77;;
24277;SDS011;12394;42.692;23.314;2023-05-21T12:42:27;23.93;;;5.97;;
24277;SDS011;12394;42.692;23.314;2023-05-21T12:44:54;25.70;;;5.63;;
24277;SDS011;12394;42.692;23.314;2023-05-21T12:47:27;18.43;;;5.33;;
24277;SDS011;12394;42.692;23.314;2023-05-21T12:49:53;11.77;;;4.90;;
24277;SDS011;12394;42.692;23.314;2023-05-21T12:52:22;9.13;;;5.30;;
24277;SDS011;12394;42.692;23.314;2023-05-21T12:54:49;10.20;;;5.00;;
24277;SDS011;12394;42.692;23.314;2023-05-21T12:57:20;9.43;;;5.37;;
24277;SDS011;12394;42.692;23.314;2023-05-21T12:59:59;11.03;;;5.23;;
24277;SDS011;12394;42.692;23.314;2023-05-21T13:02:37;6.93;;;5.10;;
24277;SDS011;12394;42.692;23.314;2023-05-21T13:05:07;9.33;;;6.07;;
24277;SDS011;12394;42.692;23.314;2023-05-21T13:07:44;10.73;;;6.93;;
24277;SDS011;12394;42.692;23.314;2023-05-21T13:10:15;9.30;;;6.03;;
24277;SDS011;12394;42.692;23.314;2023-05-21T13:12:41;14.33;;;5.97;;
24277;SDS011;12394;42.692;23.314;2023-05-21T13:15:06;8.17;;;5.77;;
24277;SDS011;12394;42.692;23.314;2023-05-21T13:17:32;10.13;;;5.93;;
24277;SDS011;12394;42.692;23.314;2023-05-21T13:20:10;11.47;;;5.40;;
24277;SDS011;12394;42.692;23.314;2023-05-21T13:22:37;10.33;;;5.13;;
24277;SDS011;12394;42.692;23.314;2023-05-21T13:25:15;8.40;;;5.90;;
24277;SDS011;12394;42.692;23.314;2023-05-21T13:27:54;13.17;;;6.70;;
24277;SDS011;12394;42.692;23.314;2023-05-21T13:30:20;13.27;;;5.47;;
24277;SDS011;12394;42.692;23.314;2023-05-21T13:32:46;10.73;;;5.83;;
24277;SDS011;12394;42.692;23.314;2023-05-21T13:35:12;14.47;;;6.10;;
24277;SDS011;12394;42.692;23.314;2023-05-21T13:37:39;11.00;;;5.70;;
24277;SDS011;12394;42.692;23.314;2023-05-21T13:40:05;25.77;;;6.40;;
24277;SDS011;12394;42.692;23.314;2023-05-21T13:42:32;14.50;;;6.20;;
24277;SDS011;12394;42.692;23.314;2023-05-21T13:44:58;14.23;;;5.70;;
24277;SDS011;12394;42.692;23.314;2023-05-21T13:47:23;13.23;;;5.40;;
24277;SDS011;12394;42.692;23.314;2023-05-21T13:49:49;13.43;;;4.83;;
24277;SDS011;12394;42.692;23.314;2023-05-21T13:52:15;7.00;;;4.40;;
24277;SDS011;12394;42.692;23.314;2023-05-21T13:54:41;10.07;;;5.53;;
24277;SDS011;12394;42.692;23.314;2023-05-21T13:57:08;10.10;;;5.47;;
24277;SDS011;12394;42.692;23.314;2023-05-21T13:59:34;8.13;;;5.10;;
24277;SDS011;12394;42.692;23.314;2023-05-21T14:01:59;10.83;;;4.97;;
24277;SDS011;12394;42.692;23.314;2023-05-21T14:04:25;8.90;;;5.40;;
24277;SDS011;12394;42.692;23.314;2023-05-21T14:06:50;14.03;;;5.90;;
24277;SDS011;12394;42.692;23.314;2023-05-21T14:09:16;17.03;;;5.87;;
24277;SDS011;12394;42.692;23.314;2023-05-21T14:11:42;17.80;;;5.10;;
24277;SDS011;12394;42.692;23.314;2023-05-21T14:14:27;11.30;;;5.57;;
24277;SDS011;12394;42.692;23.314;2023-05-21T14:16:53;16.17;;;5.20;;
24277;SDS011;12394;42.692;23.314;2023-05-21T14:19:18;13.40;;;5.70;;
24277;SDS011;12394;42.692;23.314;2023-05-21T14:21:43;13.27;;;5.57;;
24277;SDS011;12394;42.692;23.314;2023-05-21T14:24:09;15.13;;;5.37;;
24277;SDS011;12394;42.692;23.314;2023-05-21T14:26:36;8.10;;;4.50;;
24277;SDS011;12394;42.692;23.314;2023-05-21T14:29:03;26.03;;;5.60;;
24277;SDS011;12394;42.692;23.314;2023-05-21T14:31:30;13.13;;;5.30;;
24277;SDS011;12394;42.692;23.314;2023-05-21T14:33:55;13.77;;;6.00;;
24277;SDS011;12394;42.692;23.314;2023-05-21T14:36:20;13.20;;;6.07;;
24277;SDS011;12394;42.692;23.314;2023-05-21T14:38:46;14.60;;;5.87;;
24277;SDS011;12394;42.692;23.314;2023-05-21T14:41:11;8.77;;;5.10;;
24277;SDS011;12394;42.692;23.314;2023-05-21T14:43:36;10.40;;;5.07;;